sensor_id;sensor_type;location;lat;lon;timestamp;temperature;humidity
22212;DHT22;11275;52.488;13.462;2022-12-07T00:01:06;4.90;99.90
22212;DHT22;11275;52.488;13.462;2022-12-07T00:03:32;4.90;99.90
22212;DHT22;11275;52.488;13.462;2022-12-07T00:05:59;4.90;99.90
22212;DHT22;11275;52.488;13.462;2022-12-07T00:08:24;4.90;99.90
22212;DHT22;11275;52.488;13.462;2022-12-07T00:10:50;4.80;99.90
22212;DHT22;11275;52.488;13.462;2022-12-07T00:13:15;4.80;99.90
22212;DHT22;11275;52.488;13.462;2022-12-07T00:15:41;4.80;99.90
22212;DHT22;11275;52.488;13.462;2022-12-07T00:18:07;4.80;99.90
22212;DHT22;11275;52.488;13.462;2022-12-07T00:20:32;4.90;99.90
22212;DHT22;11275;52.488;13.462;2022-12-07T00:22:58;4.80;99.90
22212;DHT22;11275;52.488;13.462;2022-12-07T00:25:24;4.80;99.90
22212;DHT22;11275;52.488;13.462;2022-12-07T00:27:52;4.90;99.90
22212;DHT22;11275;52.488;13.462;2022-12-07T00:30:18;4.80;99.90
22212;DHT22;11275;52.488;13.462;2022-12-07T00:32:44;4.70;99.90
22212;DHT22;11275;52.488;13.462;2022-12-07T00:35:09;4.70;99.90
22212;DHT22;11275;52.488;13.462;2022-12-07T00:37:35;4.70;99.90
22212;DHT22;11275;52.488;13.462;2022-12-07T00:40:00;4.70;99.90
22212;DHT22;11275;52.488;13.462;2022-12-07T00:42:26;4.70;99.90
22212;DHT22;11275;52.488;13.462;2022-12-07T00:44:52;4.70;99.90
22212;DHT22;11275;52.488;13.462;2022-12-07T00:47:17;4.70;99.90
22212;DHT22;11275;52.488;13.462;2022-12-07T00:49:43;4.60;99.90
22212;DHT22;11275;52.488;13.462;2022-12-07T00:52:08;4.50;99.90
22212;DHT22;11275;52.488;13.462;2022-12-07T00:54:34;4.50;99.90
22212;DHT22;11275;52.488;13.462;2022-12-07T00:57:00;4.50;99.90
22212;DHT22;11275;52.488;13.462;2022-12-07T00:59:25;4.40;99.90
22212;DHT22;11275;52.488;13.462;2022-12-07T01:01:51;4.40;99.90
22212;DHT22;11275;52.488;13.462;2022-12-07T01:04:16;4.30;99.90
22212;DHT22;11275;52.488;13.462;2022-12-07T01:06:42;4.20;99.90
22212;DHT22;11275;52.488;13.462;2022-12-07T01:09:08;4.20;99.90
22212;DHT22;11275;52.488;13.462;2022-12-07T01:11:33;4.20;99.90
22212;DHT22;11275;52.488;13.462;2022-12-07T01:14:00;4.10;99.90
22212;DHT22;11275;52.488;13.462;2022-12-07T01:16:29;4.10;99.90
22212;DHT22;11275;52.488;13.462;2022-12-07T01:18:56;4.10;99.90
22212;DHT22;11275;52.488;13.462;2022-12-07T01:21:23;4.10;99.90
22212;DHT22;11275;52.488;13.462;2022-12-07T01:23:50;4.10;99.90
22212;DHT22;11275;52.488;13.462;2022-12-07T01:26:19;4.20;99.90
22212;DHT22;11275;52.488;13.462;2022-12-07T01:28:45;4.20;99.90
22212;DHT22;11275;52.488;13.462;2022-12-07T01:31:14;4.30;99.90
22212;DHT22;11275;52.488;13.462;2022-12-07T01:33:41;4.30;99.90
22212;DHT22;11275;52.488;13.462;2022-12-07T01:36:15;4.40;99.90
22212;DHT22;11275;52.488;13.462;2022-12-07T01:38:41;4.30;99.90
22212;DHT22;11275;52.488;13.462;2022-12-07T01:41:08;4.40;99.90
22212;DHT22;11275;52.488;13.462;2022-12-07T01:43:34;4.30;99.90
22212;DHT22;11275;52.488;13.462;2022-12-07T01:46:01;4.30;99.90
22212;DHT22;11275;52.488;13.462;2022-12-07T01:48:39;4.30;99.90
22212;DHT22;11275;52.488;13.462;2022-12-07T01:51:11;4.30;99.90
22212;DHT22;11275;52.488;13.462;2022-12-07T01:53:40;4.30;99.90
22212;DHT22;11275;52.488;13.462;2022-12-07T01:56:08;4.40;99.90
22212;DHT22;11275;52.488;13.462;2022-12-07T01:58:36;4.30;99.90
22212;DHT22;11275;52.488;13.462;2022-12-07T02:01:03;4.20;99.90
22212;DHT22;11275;52.488;13.462;2022-12-07T02:03:39;4.20;99.90
22212;DHT22;11275;52.488;13.462;2022-12-07T02:06:07;4.20;99.90
22212;DHT22;11275;52.488;13.462;2022-12-07T02:08:33;4.30;99.90
22212;DHT22;11275;52.488;13.462;2022-12-07T02:11:02;4.20;99.90
22212;DHT22;11275;52.488;13.462;2022-12-07T02:13:31;4.30;99.90
22212;DHT22;11275;52.488;13.462;2022-12-07T02:21:45;4.40;99.90
22212;DHT22;11275;52.488;13.462;2022-12-07T02:27:23;4.30;99.90
22212;DHT22;11275;52.488;13.462;2022-12-07T02:30:06;4.30;99.90
22212;DHT22;11275;52.488;13.462;2022-12-07T02:32:50;4.20;99.90
22212;DHT22;11275;52.488;13.462;2022-12-07T02:39:24;4.20;99.90
22212;DHT22;11275;52.488;13.462;2022-12-07T02:41:52;4.20;99.90
22212;DHT22;11275;52.488;13.462;2022-12-07T02:44:24;4.20;99.90
22212;DHT22;11275;52.488;13.462;2022-12-07T02:46:55;4.20;99.90
22212;DHT22;11275;52.488;13.462;2022-12-07T02:49:23;4.20;99.90
22212;DHT22;11275;52.488;13.462;2022-12-07T02:51:49;4.20;99.90
22212;DHT22;11275;52.488;13.462;2022-12-07T02:54:19;4.20;99.90
22212;DHT22;11275;52.488;13.462;2022-12-07T02:57:06;4.20;99.90
22212;DHT22;11275;52.488;13.462;2022-12-07T03:16:35;4.10;99.90
22212;DHT22;11275;52.488;13.462;2022-12-07T03:19:10;4.10;99.90
22212;DHT22;11275;52.488;13.462;2022-12-07T03:21:46;4.10;99.90
22212;DHT22;11275;52.488;13.462;2022-12-07T03:24:22;4.10;99.90
22212;DHT22;11275;52.488;13.462;2022-12-07T03:26:55;4.20;99.90
22212;DHT22;11275;52.488;13.462;2022-12-07T03:29:30;4.20;99.90
22212;DHT22;11275;52.488;13.462;2022-12-07T03:37:31;4.20;99.90
22212;DHT22;11275;52.488;13.462;2022-12-07T03:40:12;4.20;99.90
22212;DHT22;11275;52.488;13.462;2022-12-07T03:42:40;4.10;99.90
22212;DHT22;11275;52.488;13.462;2022-12-07T03:45:07;4.20;99.90
22212;DHT22;11275;52.488;13.462;2022-12-07T03:47:43;4.20;99.90
22212;DHT22;11275;52.488;13.462;2022-12-07T03:52:48;4.30;99.90
22212;DHT22;11275;52.488;13.462;2022-12-07T03:57:47;4.20;99.90
22212;DHT22;11275;52.488;13.462;2022-12-07T04:00:14;4.20;99.90
22212;DHT22;11275;52.488;13.462;2022-12-07T04:02:41;4.30;99.90
22212;DHT22;11275;52.488;13.462;2022-12-07T04:05:07;4.40;99.90
22212;DHT22;11275;52.488;13.462;2022-12-07T04:07:33;4.30;99.90
22212;DHT22;11275;52.488;13.462;2022-12-07T04:09:59;4.30;99.90
22212;DHT22;11275;52.488;13.462;2022-12-07T04:12:25;4.30;99.90
22212;DHT22;11275;52.488;13.462;2022-12-07T04:14:50;4.20;99.90
22212;DHT22;11275;52.488;13.462;2022-12-07T04:17:16;4.20;99.90
22212;DHT22;11275;52.488;13.462;2022-12-07T04:19:42;4.30;99.90
22212;DHT22;11275;52.488;13.462;2022-12-07T04:22:07;4.20;99.90
22212;DHT22;11275;52.488;13.462;2022-12-07T04:24:34;4.20;99.90
22212;DHT22;11275;52.488;13.462;2022-12-07T04:27:00;4.20;99.90
22212;DHT22;11275;52.488;13.462;2022-12-07T04:29:26;4.20;99.90
22212;DHT22;11275;52.488;13.462;2022-12-07T04:31:52;4.20;99.90
22212;DHT22;11275;52.488;13.462;2022-12-07T04:34:18;4.30;99.90
22212;DHT22;11275;52.488;13.462;2022-12-07T04:36:45;4.20;99.90
22212;DHT22;11275;52.488;13.462;2022-12-07T04:39:37;4.20;99.90
22212;DHT22;11275;52.488;13.462;2022-12-07T04:42:03;4.20;99.90
22212;DHT22;11275;52.488;13.462;2022-12-07T04:44:29;4.20;99.90
22212;DHT22;11275;52.488;13.462;2022-12-07T04:46:55;4.20;99.90
22212;DHT22;11275;52.488;13.462;2022-12-07T04:49:23;4.20;99.90
22212;DHT22;11275;52.488;13.462;2022-12-07T04:51:49;4.40;99.90
22212;DHT22;11275;52.488;13.462;2022-12-07T04:54:15;4.30;99.90
22212;DHT22;11275;52.488;13.462;2022-12-07T04:56:41;4.30;99.90
22212;DHT22;11275;52.488;13.462;2022-12-07T04:59:08;4.30;99.90
22212;DHT22;11275;52.488;13.462;2022-12-07T05:01:35;4.20;99.90
22212;DHT22;11275;52.488;13.462;2022-12-07T05:04:01;4.20;99.90
22212;DHT22;11275;52.488;13.462;2022-12-07T05:06:26;4.30;99.90
22212;DHT22;11275;52.488;13.462;2022-12-07T05:08:52;4.40;99.90
22212;DHT22;11275;52.488;13.462;2022-12-07T05:11:18;4.30;99.90
22212;DHT22;11275;52.488;13.462;2022-12-07T05:14:04;4.30;99.90
22212;DHT22;11275;52.488;13.462;2022-12-07T05:16:30;4.30;99.90
22212;DHT22;11275;52.488;13.462;2022-12-07T05:18:56;4.20;99.90
22212;DHT22;11275;52.488;13.462;2022-12-07T05:21:22;4.20;99.90
22212;DHT22;11275;52.488;13.462;2022-12-07T05:23:48;4.20;99.90
22212;DHT22;11275;52.488;13.462;2022-12-07T05:26:14;4.30;99.90
22212;DHT22;11275;52.488;13.462;2022-12-07T05:28:40;4.20;99.90
22212;DHT22;11275;52.488;13.462;2022-12-07T05:31:06;4.20;99.90
22212;DHT22;11275;52.488;13.462;2022-12-07T05:33:32;4.20;99.90
22212;DHT22;11275;52.488;13.462;2022-12-07T05:35:57;4.30;99.90
22212;DHT22;11275;52.488;13.462;2022-12-07T05:38:23;4.20;99.90
22212;DHT22;11275;52.488;13.462;2022-12-07T05:40:50;4.30;99.90
22212;DHT22;11275;52.488;13.462;2022-12-07T05:43:16;4.30;99.90
22212;DHT22;11275;52.488;13.462;2022-12-07T05:45:42;4.30;99.90
22212;DHT22;11275;52.488;13.462;2022-12-07T05:48:08;4.40;99.90
22212;DHT22;11275;52.488;13.462;2022-12-07T05:50:33;4.40;99.90
22212;DHT22;11275;52.488;13.462;2022-12-07T05:52:59;4.40;99.90
22212;DHT22;11275;52.488;13.462;2022-12-07T05:55:25;4.40;99.90
22212;DHT22;11275;52.488;13.462;2022-12-07T05:57:51;4.40;99.90
22212;DHT22;11275;52.488;13.462;2022-12-07T06:00:35;4.40;99.90
22212;DHT22;11275;52.488;13.462;2022-12-07T06:03:01;4.40;99.90
22212;DHT22;11275;52.488;13.462;2022-12-07T06:05:26;4.50;99.90
22212;DHT22;11275;52.488;13.462;2022-12-07T06:07:52;4.40;99.90
22212;DHT22;11275;52.488;13.462;2022-12-07T06:10:17;4.40;99.90
22212;DHT22;11275;52.488;13.462;2022-12-07T06:12:43;4.50;99.90
22212;DHT22;11275;52.488;13.462;2022-12-07T06:15:11;4.50;99.90
22212;DHT22;11275;52.488;13.462;2022-12-07T06:17:38;4.50;99.90
22212;DHT22;11275;52.488;13.462;2022-12-07T06:20:05;4.50;99.90
22212;DHT22;11275;52.488;13.462;2022-12-07T06:22:30;4.50;99.90
22212;DHT22;11275;52.488;13.462;2022-12-07T06:24:56;4.60;99.90
22212;DHT22;11275;52.488;13.462;2022-12-07T06:27:22;4.60;99.90
22212;DHT22;11275;52.488;13.462;2022-12-07T06:29:47;4.60;99.90
22212;DHT22;11275;52.488;13.462;2022-12-07T06:32:13;4.60;99.90
22212;DHT22;11275;52.488;13.462;2022-12-07T06:34:39;4.60;99.90
22212;DHT22;11275;52.488;13.462;2022-12-07T06:37:04;4.60;99.90
22212;DHT22;11275;52.488;13.462;2022-12-07T06:39:30;4.70;99.90
22212;DHT22;11275;52.488;13.462;2022-12-07T06:41:57;4.60;99.90
22212;DHT22;11275;52.488;13.462;2022-12-07T06:44:23;4.70;99.90
22212;DHT22;11275;52.488;13.462;2022-12-07T06:46:53;4.60;99.90
22212;DHT22;11275;52.488;13.462;2022-12-07T06:49:19;4.70;99.90
22212;DHT22;11275;52.488;13.462;2022-12-07T06:51:45;4.70;99.90
22212;DHT22;11275;52.488;13.462;2022-12-07T06:54:12;4.70;99.90
22212;DHT22;11275;52.488;13.462;2022-12-07T06:56:38;4.70;99.90
22212;DHT22;11275;52.488;13.462;2022-12-07T06:59:05;4.60;99.90
22212;DHT22;11275;52.488;13.462;2022-12-07T07:01:33;4.70;99.90
22212;DHT22;11275;52.488;13.462;2022-12-07T07:03:59;4.60;99.90
22212;DHT22;11275;52.488;13.462;2022-12-07T07:06:24;4.70;99.90
22212;DHT22;11275;52.488;13.462;2022-12-07T07:08:50;4.70;99.90
22212;DHT22;11275;52.488;13.462;2022-12-07T07:11:16;4.60;99.90
22212;DHT22;11275;52.488;13.462;2022-12-07T07:13:42;4.70;99.90
22212;DHT22;11275;52.488;13.462;2022-12-07T07:16:08;4.80;99.90
22212;DHT22;11275;52.488;13.462;2022-12-07T07:18:34;4.80;99.90
22212;DHT22;11275;52.488;13.462;2022-12-07T07:21:00;4.90;99.90
22212;DHT22;11275;52.488;13.462;2022-12-07T07:23:26;4.80;99.90
22212;DHT22;11275;52.488;13.462;2022-12-07T07:25:52;4.80;99.90
22212;DHT22;11275;52.488;13.462;2022-12-07T07:28:18;4.80;99.90
22212;DHT22;11275;52.488;13.462;2022-12-07T07:30:43;4.90;99.90
22212;DHT22;11275;52.488;13.462;2022-12-07T07:33:10;4.80;99.90
22212;DHT22;11275;52.488;13.462;2022-12-07T07:35:35;4.90;99.90
22212;DHT22;11275;52.488;13.462;2022-12-07T07:38:01;4.80;99.90
22212;DHT22;11275;52.488;13.462;2022-12-07T07:40:27;4.80;99.90
22212;DHT22;11275;52.488;13.462;2022-12-07T07:42:59;4.90;99.90
22212;DHT22;11275;52.488;13.462;2022-12-07T07:45:26;4.80;99.90
22212;DHT22;11275;52.488;13.462;2022-12-07T07:47:52;4.90;99.90
22212;DHT22;11275;52.488;13.462;2022-12-07T07:50:19;4.80;99.90
22212;DHT22;11275;52.488;13.462;2022-12-07T07:52:45;4.90;99.90
22212;DHT22;11275;52.488;13.462;2022-12-07T07:55:11;4.90;99.90
22212;DHT22;11275;52.488;13.462;2022-12-07T07:57:38;4.90;99.90
22212;DHT22;11275;52.488;13.462;2022-12-07T08:00:07;5.00;99.90
22212;DHT22;11275;52.488;13.462;2022-12-07T08:02:36;5.10;99.90
22212;DHT22;11275;52.488;13.462;2022-12-07T08:05:01;5.20;99.90
22212;DHT22;11275;52.488;13.462;2022-12-07T08:07:28;5.20;99.90
22212;DHT22;11275;52.488;13.462;2022-12-07T08:09:53;5.20;99.90
22212;DHT22;11275;52.488;13.462;2022-12-07T08:12:19;5.20;99.90
22212;DHT22;11275;52.488;13.462;2022-12-07T08:14:45;5.20;99.90
22212;DHT22;11275;52.488;13.462;2022-12-07T08:17:11;5.20;99.90
22212;DHT22;11275;52.488;13.462;2022-12-07T08:19:40;5.20;99.90
22212;DHT22;11275;52.488;13.462;2022-12-07T08:22:05;5.20;99.90
22212;DHT22;11275;52.488;13.462;2022-12-07T08:24:35;5.10;99.90
22212;DHT22;11275;52.488;13.462;2022-12-07T08:27:01;5.20;99.90
22212;DHT22;11275;52.488;13.462;2022-12-07T08:29:27;5.20;99.90
22212;DHT22;11275;52.488;13.462;2022-12-07T08:31:53;5.20;99.90
22212;DHT22;11275;52.488;13.462;2022-12-07T08:34:18;5.20;99.90
22212;DHT22;11275;52.488;13.462;2022-12-07T08:36:44;5.20;99.90
22212;DHT22;11275;52.488;13.462;2022-12-07T08:39:09;5.30;99.90
22212;DHT22;11275;52.488;13.462;2022-12-07T08:41:35;5.30;99.90
22212;DHT22;11275;52.488;13.462;2022-12-07T08:44:01;5.40;99.90
22212;DHT22;11275;52.488;13.462;2022-12-07T08:46:33;5.30;99.90
22212;DHT22;11275;52.488;13.462;2022-12-07T08:49:18;5.20;99.90
22212;DHT22;11275;52.488;13.462;2022-12-07T08:51:44;5.20;99.90
22212;DHT22;11275;52.488;13.462;2022-12-07T08:54:13;5.30;99.90
22212;DHT22;11275;52.488;13.462;2022-12-07T08:56:40;5.40;99.90
22212;DHT22;11275;52.488;13.462;2022-12-07T08:59:06;5.40;99.90
22212;DHT22;11275;52.488;13.462;2022-12-07T09:01:33;5.40;99.90
22212;DHT22;11275;52.488;13.462;2022-12-07T09:03:59;5.50;99.90
22212;DHT22;11275;52.488;13.462;2022-12-07T09:06:25;5.50;99.90
22212;DHT22;11275;52.488;13.462;2022-12-07T09:08:53;5.50;99.90
22212;DHT22;11275;52.488;13.462;2022-12-07T09:11:20;5.50;99.90
22212;DHT22;11275;52.488;13.462;2022-12-07T09:13:46;5.50;99.90
22212;DHT22;11275;52.488;13.462;2022-12-07T09:16:12;5.50;99.90
22212;DHT22;11275;52.488;13.462;2022-12-07T09:18:38;5.50;99.90
22212;DHT22;11275;52.488;13.462;2022-12-07T09:21:04;5.50;99.90
22212;DHT22;11275;52.488;13.462;2022-12-07T09:23:29;5.50;99.90
22212;DHT22;11275;52.488;13.462;2022-12-07T09:26:02;5.50;99.90
22212;DHT22;11275;52.488;13.462;2022-12-07T09:28:28;5.50;99.90
22212;DHT22;11275;52.488;13.462;2022-12-07T09:30:55;5.50;99.90
22212;DHT22;11275;52.488;13.462;2022-12-07T09:33:21;5.50;99.90
22212;DHT22;11275;52.488;13.462;2022-12-07T09:35:48;5.50;99.90
22212;DHT22;11275;52.488;13.462;2022-12-07T09:38:14;5.50;99.90
22212;DHT22;11275;52.488;13.462;2022-12-07T09:40:40;5.50;99.90
22212;DHT22;11275;52.488;13.462;2022-12-07T09:43:21;5.40;99.90
22212;DHT22;11275;52.488;13.462;2022-12-07T09:45:53;5.40;99.90
22212;DHT22;11275;52.488;13.462;2022-12-07T09:48:32;5.40;99.90
22212;DHT22;11275;52.488;13.462;2022-12-07T09:51:00;5.40;99.90
22212;DHT22;11275;52.488;13.462;2022-12-07T09:55:54;5.40;99.90
22212;DHT22;11275;52.488;13.462;2022-12-07T09:58:25;5.50;99.90
22212;DHT22;11275;52.488;13.462;2022-12-07T10:01:00;5.50;99.90
22212;DHT22;11275;52.488;13.462;2022-12-07T10:03:29;5.60;99.90
22212;DHT22;11275;52.488;13.462;2022-12-07T10:05:55;5.50;99.90
22212;DHT22;11275;52.488;13.462;2022-12-07T10:08:21;5.40;99.90
22212;DHT22;11275;52.488;13.462;2022-12-07T10:10:54;5.40;99.90
22212;DHT22;11275;52.488;13.462;2022-12-07T10:13:34;5.50;99.90
22212;DHT22;11275;52.488;13.462;2022-12-07T10:16:00;5.60;99.90
22212;DHT22;11275;52.488;13.462;2022-12-07T10:18:38;5.50;99.90
22212;DHT22;11275;52.488;13.462;2022-12-07T10:21:18;5.50;99.90
22212;DHT22;11275;52.488;13.462;2022-12-07T10:29:33;5.30;99.90
22212;DHT22;11275;52.488;13.462;2022-12-07T10:34:34;5.40;99.90
22212;DHT22;11275;52.488;13.462;2022-12-07T10:40:23;5.40;99.90
22212;DHT22;11275;52.488;13.462;2022-12-07T10:43:01;5.20;99.90
22212;DHT22;11275;52.488;13.462;2022-12-07T10:45:27;5.10;99.90
22212;DHT22;11275;52.488;13.462;2022-12-07T10:48:14;5.10;99.90
22212;DHT22;11275;52.488;13.462;2022-12-07T10:50:58;5.10;99.90
22212;DHT22;11275;52.488;13.462;2022-12-07T10:59:32;5.10;99.90
22212;DHT22;11275;52.488;13.462;2022-12-07T11:02:21;5.20;99.90
22212;DHT22;11275;52.488;13.462;2022-12-07T11:11:24;5.40;99.90
22212;DHT22;11275;52.488;13.462;2022-12-07T11:39:06;5.50;99.90
22212;DHT22;11275;52.488;13.462;2022-12-07T11:41:38;5.50;99.90
22212;DHT22;11275;52.488;13.462;2022-12-07T11:44:19;5.60;99.90
22212;DHT22;11275;52.488;13.462;2022-12-07T11:47:00;5.50;99.90
22212;DHT22;11275;52.488;13.462;2022-12-07T11:49:44;5.60;99.90
22212;DHT22;11275;52.488;13.462;2022-12-07T11:52:25;5.50;99.90
22212;DHT22;11275;52.488;13.462;2022-12-07T11:54:53;5.50;99.90
22212;DHT22;11275;52.488;13.462;2022-12-07T11:57:41;5.50;99.90
22212;DHT22;11275;52.488;13.462;2022-12-07T12:00:16;5.60;99.90
22212;DHT22;11275;52.488;13.462;2022-12-07T12:02:53;5.70;99.90
22212;DHT22;11275;52.488;13.462;2022-12-07T12:05:23;5.70;99.90
22212;DHT22;11275;52.488;13.462;2022-12-07T12:08:17;5.70;99.90
22212;DHT22;11275;52.488;13.462;2022-12-07T12:21:58;5.70;99.90
22212;DHT22;11275;52.488;13.462;2022-12-07T12:24:28;5.70;99.90
22212;DHT22;11275;52.488;13.462;2022-12-07T12:27:08;5.80;99.90
22212;DHT22;11275;52.488;13.462;2022-12-07T12:29:35;5.70;99.90
22212;DHT22;11275;52.488;13.462;2022-12-07T12:35:39;5.70;99.90
22212;DHT22;11275;52.488;13.462;2022-12-07T12:37:47;5.70;99.90
22212;DHT22;11275;52.488;13.462;2022-12-07T12:42:47;5.70;99.90
22212;DHT22;11275;52.488;13.462;2022-12-07T12:45:27;5.70;99.90
22212;DHT22;11275;52.488;13.462;2022-12-07T12:50:33;5.70;99.90
22212;DHT22;11275;52.488;13.462;2022-12-07T12:53:01;5.80;99.90
22212;DHT22;11275;52.488;13.462;2022-12-07T12:55:46;5.80;99.90
22212;DHT22;11275;52.488;13.462;2022-12-07T13:00:47;5.70;99.90
22212;DHT22;11275;52.488;13.462;2022-12-07T13:03:30;5.70;99.90
22212;DHT22;11275;52.488;13.462;2022-12-07T13:08:51;5.90;99.90
22212;DHT22;11275;52.488;13.462;2022-12-07T13:11:18;5.80;99.90
22212;DHT22;11275;52.488;13.462;2022-12-07T13:13:45;5.80;99.90
22212;DHT22;11275;52.488;13.462;2022-12-07T13:18:38;5.80;99.90
22212;DHT22;11275;52.488;13.462;2022-12-07T13:26:20;5.80;99.90
22212;DHT22;11275;52.488;13.462;2022-12-07T13:28:50;5.80;99.90
22212;DHT22;11275;52.488;13.462;2022-12-07T13:31:48;5.80;99.90
22212;DHT22;11275;52.488;13.462;2022-12-07T13:37:14;5.70;99.90
22212;DHT22;11275;52.488;13.462;2022-12-07T13:39:49;5.70;99.90
22212;DHT22;11275;52.488;13.462;2022-12-07T13:42:25;5.70;99.90
22212;DHT22;11275;52.488;13.462;2022-12-07T13:44:52;5.70;99.90
22212;DHT22;11275;52.488;13.462;2022-12-07T13:47:35;5.70;99.90
22212;DHT22;11275;52.488;13.462;2022-12-07T13:50:25;5.80;99.90
22212;DHT22;11275;52.488;13.462;2022-12-07T13:52:55;5.80;99.90
22212;DHT22;11275;52.488;13.462;2022-12-07T13:55:21;5.80;99.90
22212;DHT22;11275;52.488;13.462;2022-12-07T13:57:51;5.90;99.90
22212;DHT22;11275;52.488;13.462;2022-12-07T14:00:20;5.90;99.90
22212;DHT22;11275;52.488;13.462;2022-12-07T14:02:59;5.90;99.90
22212;DHT22;11275;52.488;13.462;2022-12-07T14:05:31;5.90;99.90
22212;DHT22;11275;52.488;13.462;2022-12-07T14:10:54;5.90;99.90
22212;DHT22;11275;52.488;13.462;2022-12-07T14:13:33;5.90;99.90
22212;DHT22;11275;52.488;13.462;2022-12-07T14:16:00;5.90;99.90
22212;DHT22;11275;52.488;13.462;2022-12-07T14:21:22;5.80;99.90
22212;DHT22;11275;52.488;13.462;2022-12-07T14:26:32;6.00;99.90
22212;DHT22;11275;52.488;13.462;2022-12-07T14:29:39;5.90;99.90
22212;DHT22;11275;52.488;13.462;2022-12-07T14:32:25;6.00;99.90
22212;DHT22;11275;52.488;13.462;2022-12-07T14:35:12;5.90;99.90
22212;DHT22;11275;52.488;13.462;2022-12-07T14:37:40;5.80;99.90
22212;DHT22;11275;52.488;13.462;2022-12-07T14:40:06;5.70;99.90
22212;DHT22;11275;52.488;13.462;2022-12-07T14:42:33;5.70;99.90
22212;DHT22;11275;52.488;13.462;2022-12-07T14:44:59;5.70;99.90
22212;DHT22;11275;52.488;13.462;2022-12-07T14:47:26;5.70;99.90
22212;DHT22;11275;52.488;13.462;2022-12-07T14:49:52;5.60;99.90
22212;DHT22;11275;52.488;13.462;2022-12-07T14:52:25;5.60;99.90
22212;DHT22;11275;52.488;13.462;2022-12-07T14:54:52;5.60;99.90
22212;DHT22;11275;52.488;13.462;2022-12-07T14:57:18;5.60;99.90
22212;DHT22;11275;52.488;13.462;2022-12-07T14:59:43;5.60;99.90
22212;DHT22;11275;52.488;13.462;2022-12-07T15:02:11;5.50;99.90
22212;DHT22;11275;52.488;13.462;2022-12-07T15:04:38;5.50;99.90
22212;DHT22;11275;52.488;13.462;2022-12-07T15:07:06;5.40;99.90
22212;DHT22;11275;52.488;13.462;2022-12-07T15:09:34;5.40;99.90
22212;DHT22;11275;52.488;13.462;2022-12-07T15:12:00;5.40;99.90
22212;DHT22;11275;52.488;13.462;2022-12-07T15:14:25;5.30;99.90
22212;DHT22;11275;52.488;13.462;2022-12-07T15:16:51;5.20;99.90
22212;DHT22;11275;52.488;13.462;2022-12-07T15:19:19;5.10;99.90
22212;DHT22;11275;52.488;13.462;2022-12-07T15:21:51;5.20;99.90
22212;DHT22;11275;52.488;13.462;2022-12-07T15:24:17;5.20;99.90
22212;DHT22;11275;52.488;13.462;2022-12-07T15:26:43;5.30;99.90
22212;DHT22;11275;52.488;13.462;2022-12-07T15:29:10;5.20;99.90
22212;DHT22;11275;52.488;13.462;2022-12-07T15:31:36;5.20;99.90
22212;DHT22;11275;52.488;13.462;2022-12-07T15:34:01;5.10;99.90
22212;DHT22;11275;52.488;13.462;2022-12-07T15:36:29;5.20;99.90
22212;DHT22;11275;52.488;13.462;2022-12-07T15:38:55;5.10;99.90
22212;DHT22;11275;52.488;13.462;2022-12-07T15:41:21;5.10;99.90
22212;DHT22;11275;52.488;13.462;2022-12-07T15:43:47;5.20;99.90
22212;DHT22;11275;52.488;13.462;2022-12-07T15:46:33;5.20;99.90
22212;DHT22;11275;52.488;13.462;2022-12-07T15:49:00;5.20;99.90
22212;DHT22;11275;52.488;13.462;2022-12-07T15:51:26;5.20;99.90
22212;DHT22;11275;52.488;13.462;2022-12-07T15:53:53;5.10;99.90
22212;DHT22;11275;52.488;13.462;2022-12-07T15:56:19;5.20;99.90
22212;DHT22;11275;52.488;13.462;2022-12-07T15:58:44;5.30;99.90
22212;DHT22;11275;52.488;13.462;2022-12-07T16:01:15;5.30;99.90
22212;DHT22;11275;52.488;13.462;2022-12-07T16:03:41;5.20;99.90
22212;DHT22;11275;52.488;13.462;2022-12-07T16:06:07;5.30;99.90
22212;DHT22;11275;52.488;13.462;2022-12-07T16:08:33;5.40;99.90
22212;DHT22;11275;52.488;13.462;2022-12-07T16:10:59;5.40;99.90
22212;DHT22;11275;52.488;13.462;2022-12-07T16:13:24;5.30;99.90
22212;DHT22;11275;52.488;13.462;2022-12-07T16:15:50;5.20;99.90
22212;DHT22;11275;52.488;13.462;2022-12-07T16:18:16;5.40;99.90
22212;DHT22;11275;52.488;13.462;2022-12-07T16:20:41;5.30;99.90
22212;DHT22;11275;52.488;13.462;2022-12-07T16:23:08;5.30;99.90
22212;DHT22;11275;52.488;13.462;2022-12-07T16:25:34;5.40;99.90
22212;DHT22;11275;52.488;13.462;2022-12-07T16:27:59;5.30;99.90
22212;DHT22;11275;52.488;13.462;2022-12-07T16:30:25;5.20;99.90
22212;DHT22;11275;52.488;13.462;2022-12-07T16:32:51;5.20;99.90
22212;DHT22;11275;52.488;13.462;2022-12-07T16:35:17;5.10;99.90
22212;DHT22;11275;52.488;13.462;2022-12-07T16:37:43;5.00;99.90
22212;DHT22;11275;52.488;13.462;2022-12-07T16:40:09;4.90;99.90
22212;DHT22;11275;52.488;13.462;2022-12-07T16:42:35;5.00;99.90
22212;DHT22;11275;52.488;13.462;2022-12-07T16:45:02;4.90;99.90
22212;DHT22;11275;52.488;13.462;2022-12-07T16:47:27;4.90;99.90
22212;DHT22;11275;52.488;13.462;2022-12-07T16:49:53;4.90;99.90
22212;DHT22;11275;52.488;13.462;2022-12-07T16:52:19;4.70;99.90
22212;DHT22;11275;52.488;13.462;2022-12-07T16:54:46;4.80;99.90
22212;DHT22;11275;52.488;13.462;2022-12-07T16:57:11;4.80;99.90
22212;DHT22;11275;52.488;13.462;2022-12-07T16:59:37;4.80;99.90
22212;DHT22;11275;52.488;13.462;2022-12-07T17:02:03;4.90;99.90
22212;DHT22;11275;52.488;13.462;2022-12-07T17:04:29;4.90;99.90
22212;DHT22;11275;52.488;13.462;2022-12-07T17:06:54;4.90;99.90
22212;DHT22;11275;52.488;13.462;2022-12-07T17:09:20;4.80;99.90
22212;DHT22;11275;52.488;13.462;2022-12-07T17:11:48;4.70;99.90
22212;DHT22;11275;52.488;13.462;2022-12-07T17:14:14;4.70;99.90
22212;DHT22;11275;52.488;13.462;2022-12-07T17:16:59;4.60;99.90
22212;DHT22;11275;52.488;13.462;2022-12-07T17:19:25;4.50;99.90
22212;DHT22;11275;52.488;13.462;2022-12-07T17:21:51;4.50;99.90
22212;DHT22;11275;52.488;13.462;2022-12-07T17:24:17;4.50;99.90
22212;DHT22;11275;52.488;13.462;2022-12-07T17:26:46;4.50;99.90
22212;DHT22;11275;52.488;13.462;2022-12-07T17:29:16;4.50;99.90
22212;DHT22;11275;52.488;13.462;2022-12-07T17:31:43;4.60;99.90
22212;DHT22;11275;52.488;13.462;2022-12-07T17:34:13;4.60;99.90
22212;DHT22;11275;52.488;13.462;2022-12-07T17:36:40;4.50;99.90
22212;DHT22;11275;52.488;13.462;2022-12-07T17:39:07;4.50;99.90
22212;DHT22;11275;52.488;13.462;2022-12-07T17:41:40;4.50;99.90
22212;DHT22;11275;52.488;13.462;2022-12-07T17:44:24;4.50;99.90
22212;DHT22;11275;52.488;13.462;2022-12-07T17:46:52;4.40;99.90
22212;DHT22;11275;52.488;13.462;2022-12-07T17:49:20;4.30;99.90
22212;DHT22;11275;52.488;13.462;2022-12-07T17:51:46;4.40;99.90
22212;DHT22;11275;52.488;13.462;2022-12-07T17:54:31;4.40;99.90
22212;DHT22;11275;52.488;13.462;2022-12-07T17:56:56;4.40;99.90